createdAt,value
2023-04-24T00:01:59.987Z,94636.78
2023-04-24T00:04:29.439Z,94651.22
2023-04-24T00:07:01.321Z,94643.53
2023-04-24T00:09:30.648Z,94641.19
2023-04-24T00:12:01.388Z,94637.19
2023-04-24T00:14:30.641Z,94638.78
2023-04-24T00:16:59.888Z,94628.25
2023-04-24T00:19:29.720Z,94623.75
2023-04-24T00:21:58.790Z,94637.63
2023-04-24T00:24:28.073Z,94633.63
2023-04-24T00:26:57.408Z,94628.94
2023-04-24T00:29:27.949Z,94630.91
2023-04-24T00:31:57.390Z,94624.00
2023-04-24T00:34:27.025Z,94626.66
2023-04-24T00:36:56.212Z,94625.25
2023-04-24T00:39:25.416Z,94621.00
2023-04-24T00:41:54.872Z,94618.84
2023-04-24T00:44:24.299Z,94618.59
2023-04-24T00:46:56.801Z,94605.41
2023-04-24T00:49:26.081Z,94603.78
2023-04-24T00:51:55.150Z,94608.19
2023-04-24T00:54:24.326Z,94600.13
2023-04-24T00:56:54.902Z,94615.72
2023-04-24T00:59:24.372Z,94606.69
2023-04-24T01:01:55.827Z,94603.22
2023-04-24T01:04:25.132Z,94600.47
2023-04-24T01:06:55.640Z,94599.44
2023-04-24T01:09:25.604Z,94594.38
2023-04-24T01:11:55.388Z,94596.41
2023-04-24T01:14:25.128Z,94600.91
2023-04-24T01:16:56.191Z,94602.75
2023-04-24T01:19:25.376Z,94596.97
2023-04-24T01:21:56.756Z,94600.88
2023-04-24T01:24:27.534Z,94592.50
2023-04-24T01:26:56.684Z,94589.88
2023-04-24T01:29:26.364Z,94593.28
2023-04-24T01:31:56.082Z,94590.41
2023-04-24T01:34:30.903Z,94591.44
2023-04-24T01:37:00.185Z,94591.38
2023-04-24T01:39:30.817Z,94584.34
2023-04-24T01:42:00.258Z,94583.38
2023-04-24T01:44:30.060Z,94592.28
2023-04-24T01:46:59.285Z,94592.59
2023-04-24T01:49:29.149Z,94596.03
2023-04-24T01:51:58.985Z,94595.47
2023-04-24T01:54:29.655Z,94590.75
2023-04-24T01:56:58.921Z,94590.03
2023-04-24T01:59:29.530Z,94579.44
2023-04-24T02:01:58.623Z,94579.94
2023-04-24T02:04:27.807Z,94581.53
2023-04-24T02:06:57.118Z,94575.63
2023-04-24T02:09:27.503Z,94574.25
2023-04-24T02:11:58.548Z,94573.69
2023-04-24T02:14:28.203Z,94572.03
2023-04-24T02:16:57.598Z,94562.72
2023-04-24T02:19:26.810Z,94569.72
2023-04-24T02:21:56.244Z,94562.63
2023-04-24T02:24:25.596Z,94561.75
2023-04-24T02:26:54.785Z,94561.44
2023-04-24T02:29:25.361Z,94561.44
2023-04-24T02:31:54.940Z,94559.09
2023-04-24T02:34:24.392Z,94561.66
2023-04-24T02:36:55.049Z,94563.69
2023-04-24T02:39:24.340Z,94559.75
2023-04-24T02:41:55.734Z,94560.56
2023-04-24T02:44:26.395Z,94551.97
2023-04-24T02:46:55.465Z,94564.78
2023-04-24T02:49:25.911Z,94556.91
2023-04-24T02:51:55.057Z,94558.97
2023-04-24T02:54:24.254Z,94563.88
2023-04-24T02:56:53.330Z,94558.41
2023-04-24T02:59:22.729Z,94556.50
2023-04-24T03:01:53.453Z,94559.16
2023-04-24T03:04:23.987Z,94560.56
2023-04-24T03:06:55.992Z,94555.09
2023-04-24T03:09:25.213Z,94557.41
2023-04-24T03:11:54.341Z,94558.69
2023-04-24T03:14:23.369Z,94555.66
2023-04-24T03:16:54.169Z,94549.50
2023-04-24T03:19:23.427Z,94546.22
2023-04-24T03:22:12.533Z,94547.09
2023-04-24T03:25:17.246Z,94549.19
2023-04-24T03:27:47.455Z,94543.13
2023-04-24T03:30:40.762Z,94550.25
2023-04-24T03:33:12.198Z,94544.31
2023-04-24T03:35:48.946Z,94558.44
2023-04-24T03:38:18.123Z,94554.81
2023-04-24T03:40:50.146Z,94547.59
2023-04-24T03:43:39.457Z,94537.78
2023-04-24T03:46:10.649Z,94547.66
2023-04-24T03:48:49.277Z,94548.53
2023-04-24T03:51:20.715Z,94549.66
2023-04-24T03:53:55.562Z,94550.13
2023-04-24T03:56:30.732Z,94559.63
2023-04-24T03:58:59.833Z,94555.81
2023-04-24T04:01:29.552Z,94547.78
2023-04-24T04:04:11.380Z,94560.13
2023-04-24T04:06:41.413Z,94557.59
2023-04-24T04:09:10.946Z,94561.22
2023-04-24T04:11:40.194Z,94566.28
2023-04-24T04:14:09.362Z,94571.41
2023-04-24T04:16:41.701Z,94564.94
2023-04-24T04:19:12.740Z,94555.81
2023-04-24T04:21:42.243Z,94565.53
2023-04-24T04:24:25.387Z,94558.78
2023-04-24T04:26:57.802Z,94563.06
2023-04-24T04:29:38.494Z,94563.41
2023-04-24T04:32:10.859Z,94566.63
2023-04-24T04:34:41.852Z,94567.41
2023-04-24T04:37:13.813Z,94569.59
2023-04-24T04:39:54.819Z,94575.13
2023-04-24T04:42:28.172Z,94570.94
2023-04-24T04:44:58.677Z,94576.91
2023-04-24T04:47:37.789Z,94579.13
2023-04-24T04:50:09.780Z,94574.47
2023-04-24T04:52:38.947Z,94569.91
2023-04-24T04:55:19.606Z,94584.09
2023-04-24T04:58:11.726Z,94583.06
2023-04-24T05:00:41.271Z,94573.16
2023-04-24T05:03:37.278Z,94576.75
2023-04-24T05:06:11.926Z,94575.41
2023-04-24T05:08:42.931Z,94564.72
2023-04-24T05:11:18.539Z,94568.28
2023-04-24T05:13:47.926Z,94572.44
2023-04-24T05:16:21.780Z,94572.00
2023-04-24T05:18:53.242Z,94577.88
2023-04-24T05:21:28.662Z,94582.50
2023-04-24T05:23:57.983Z,94580.53
2023-04-24T05:27:00.119Z,94577.72
2023-04-24T05:29:36.472Z,94576.91
2023-04-24T05:32:07.417Z,94582.28
2023-04-24T05:34:37.566Z,94584.38
2023-04-24T05:37:11.110Z,94586.09
2023-04-24T05:39:42.553Z,94590.63
2023-04-24T05:42:11.930Z,94596.56
2023-04-24T05:44:41.044Z,94596.09
2023-04-24T05:47:10.243Z,94598.03
2023-04-24T05:49:39.771Z,94599.41
2023-04-24T05:52:11.805Z,94601.88
2023-04-24T05:54:42.632Z,94595.47
2023-04-24T05:57:14.696Z,94588.41
2023-04-24T05:59:53.991Z,94587.91
2023-04-24T06:02:24.948Z,94594.09
2023-04-24T06:04:55.240Z,94593.16
2023-04-24T06:07:31.504Z,94599.03
2023-04-24T06:10:02.102Z,94604.97
2023-04-24T06:12:33.393Z,94596.78
2023-04-24T06:15:12.980Z,94605.03
2023-04-24T06:18:05.354Z,94601.63
2023-04-24T06:20:34.818Z,94604.84
2023-04-24T06:23:06.139Z,94604.03
2023-04-24T06:25:36.739Z,94602.78
2023-04-24T06:28:05.965Z,94595.31
2023-04-24T06:30:35.240Z,94604.38
2023-04-24T06:33:18.803Z,94596.13
2023-04-24T06:35:50.014Z,94586.56
2023-04-24T06:38:20.984Z,94581.22
2023-04-24T06:40:50.215Z,94568.47
2023-04-24T06:43:19.291Z,94560.19
2023-04-24T06:45:48.410Z,94564.72
2023-04-24T06:48:17.671Z,94567.63
2023-04-24T06:50:48.065Z,94579.91
2023-04-24T06:53:17.582Z,94575.38
2023-04-24T06:55:48.169Z,94582.78
2023-04-24T06:58:17.238Z,94578.94
2023-04-24T07:00:46.906Z,94586.53
2023-04-24T07:03:16.391Z,94591.03
2023-04-24T07:05:45.686Z,94585.38
2023-04-24T07:08:15.188Z,94585.53
2023-04-24T07:10:44.314Z,94586.84
2023-04-24T07:13:15.154Z,94584.34
2023-04-24T07:15:44.475Z,94592.00
2023-04-24T07:18:14.001Z,94588.75
2023-04-24T07:20:43.339Z,94573.03
2023-04-24T07:23:12.663Z,94577.25
2023-04-24T07:25:42.070Z,94571.69
2023-04-24T07:28:11.435Z,94576.06
2023-04-24T07:30:42.028Z,94577.78
2023-04-24T07:33:14.470Z,94570.06
2023-04-24T07:35:43.595Z,94569.28
2023-04-24T07:38:12.752Z,94566.44
2023-04-24T07:40:41.804Z,94570.03
2023-04-24T07:43:11.010Z,94565.25
2023-04-24T07:45:41.891Z,94557.72
2023-04-24T07:48:11.732Z,94560.34
2023-04-24T07:50:40.856Z,94561.31
2023-04-24T07:53:10.042Z,94561.94
2023-04-24T07:55:39.255Z,94558.34
2023-04-24T07:58:08.551Z,94555.41
2023-04-24T08:00:37.875Z,94555.63
2023-04-24T08:03:08.554Z,94547.25
2023-04-24T08:05:40.204Z,94546.16
2023-04-24T08:08:10.811Z,94543.38
2023-04-24T08:10:39.955Z,94541.28
2023-04-24T08:13:09.231Z,94536.34
2023-04-24T08:15:38.432Z,94534.16
2023-04-24T08:18:09.545Z,94534.16
2023-04-24T08:20:38.809Z,94530.66
2023-04-24T08:23:08.193Z,94529.34
2023-04-24T08:25:37.562Z,94528.63
2023-04-24T08:28:11.035Z,94529.19
2023-04-24T08:30:40.877Z,94528.78
2023-04-24T08:33:11.623Z,94520.81
2023-04-24T08:35:40.986Z,94512.47
2023-04-24T08:38:10.175Z,94511.97
2023-04-24T08:40:40.633Z,94504.59
2023-04-24T08:43:10.303Z,94507.72
2023-04-24T08:45:40.112Z,94502.88
2023-04-24T08:48:23.398Z,94499.31
2023-04-24T08:50:57.835Z,94494.06
2023-04-24T08:53:27.623Z,94493.41
2023-04-24T08:55:58.037Z,94493.91
2023-04-24T08:58:28.909Z,94486.00
2023-04-24T09:00:58.700Z,94479.53
2023-04-24T09:03:30.998Z,94478.75
2023-04-24T09:06:01.476Z,94471.94
2023-04-24T09:08:32.276Z,94468.31
2023-04-24T09:11:03.911Z,94469.41
2023-04-24T09:13:34.639Z,94472.88
2023-04-24T09:16:03.758Z,94468.78
2023-04-24T09:18:34.983Z,94465.63
2023-04-24T09:21:05.802Z,94458.72
2023-04-24T09:23:35.487Z,94465.59
2023-04-24T09:26:07.188Z,94458.53
2023-04-24T09:28:39.330Z,94453.19
2023-04-24T09:31:10.605Z,94443.22
2023-04-24T09:33:41.524Z,94444.22
2023-04-24T09:36:11.086Z,94451.16
2023-04-24T09:38:41.240Z,94445.94
2023-04-24T09:41:16.310Z,94439.53
2023-04-24T09:43:45.336Z,94446.13
2023-04-24T09:46:14.719Z,94435.00
2023-04-24T09:48:45.319Z,94428.50
2023-04-24T09:51:16.549Z,94427.31
2023-04-24T09:53:49.176Z,94426.22
2023-04-24T09:56:28.545Z,94422.75
2023-04-24T09:58:57.734Z,94416.66
2023-04-24T10:01:33.412Z,94419.34
2023-04-24T10:04:04.298Z,94420.13
2023-04-24T10:06:37.060Z,94411.53
2023-04-24T10:09:06.681Z,94408.94
2023-04-24T10:11:36.168Z,94401.06
2023-04-24T10:14:06.374Z,94397.25
2023-04-24T10:16:35.594Z,94390.13
2023-04-24T10:19:06.469Z,94387.63
2023-04-24T10:21:36.563Z,94391.25
2023-04-24T10:24:06.121Z,94384.63
2023-04-24T10:26:35.660Z,94382.09
2023-04-24T10:29:04.734Z,94383.44
2023-04-24T10:31:35.132Z,94371.97
2023-04-24T10:34:06.892Z,94378.13
2023-04-24T10:36:37.867Z,94370.00
2023-04-24T10:39:10.410Z,94380.91
2023-04-24T10:41:40.435Z,94369.66
2023-04-24T10:44:11.081Z,94360.16
2023-04-24T10:46:41.095Z,94361.44
2023-04-24T10:49:12.025Z,94352.75
2023-04-24T10:51:49.472Z,94350.38
2023-04-24T10:54:26.577Z,94345.94
2023-04-24T10:56:56.733Z,94356.09
2023-04-24T10:59:30.533Z,94351.00
2023-04-24T11:01:59.725Z,94360.03
2023-04-24T11:04:36.486Z,94357.31
2023-04-24T11:07:06.314Z,94360.63
2023-04-24T11:09:37.590Z,94360.22
2023-04-24T11:12:09.183Z,94342.66
2023-04-24T11:15:04.143Z,94336.75
2023-04-24T11:17:38.881Z,94335.31
2023-04-24T11:20:26.602Z,94340.66
2023-04-24T11:22:59.053Z,94335.13
2023-04-24T11:25:28.288Z,94331.38
2023-04-24T11:28:07.388Z,94330.06
2023-04-24T11:30:36.664Z,94336.38
2023-04-24T11:33:06.991Z,94319.56
2023-04-24T11:35:43.208Z,94313.31
2023-04-24T11:38:24.070Z,94312.69
2023-04-24T11:40:54.640Z,94312.25
2023-04-24T11:43:24.465Z,94315.31
2023-04-24T11:45:54.179Z,94307.47
2023-04-24T11:48:24.149Z,94315.69
2023-04-24T11:50:55.272Z,94303.81
2023-04-24T11:53:24.970Z,94302.97
2023-04-24T11:55:54.328Z,94302.16
2023-04-24T11:58:24.264Z,94299.47
2023-04-24T12:01:00.652Z,94288.97
2023-04-24T12:03:30.179Z,94295.22
2023-04-24T12:06:10.209Z,94286.34
2023-04-24T12:08:40.309Z,94285.09
2023-04-24T12:11:10.383Z,94281.06
2023-04-24T12:13:39.907Z,94276.63
2023-04-24T12:16:09.290Z,94265.72
2023-04-24T12:18:44.893Z,94282.41
2023-04-24T12:21:26.388Z,94282.66
2023-04-24T12:23:58.016Z,94274.47
2023-04-24T12:26:27.257Z,94275.06
2023-04-24T12:28:56.660Z,94265.22
2023-04-24T12:31:25.856Z,94251.81
2023-04-24T12:33:55.188Z,94250.56
2023-04-24T12:36:29.044Z,94255.28
2023-04-24T12:38:58.581Z,94243.81
2023-04-24T12:41:27.776Z,94242.84
2023-04-24T12:43:57.400Z,94249.75
2023-04-24T12:46:27.985Z,94247.59
2023-04-24T12:48:57.085Z,94236.16
2023-04-24T12:51:27.849Z,94226.63
2023-04-24T12:53:57.139Z,94221.56
2023-04-24T12:56:26.283Z,94217.75
2023-04-24T12:58:55.466Z,94205.31
2023-04-24T13:01:24.605Z,94205.59
2023-04-24T13:03:53.922Z,94195.22
2023-04-24T13:06:23.531Z,94202.06
2023-04-24T13:08:56.323Z,94195.31
2023-04-24T13:11:25.463Z,94189.84
2023-04-24T13:13:55.428Z,94184.94
2023-04-24T13:16:24.971Z,94185.34
2023-04-24T13:18:54.088Z,94173.53
2023-04-24T13:21:23.395Z,94175.44
2023-04-24T13:23:54.325Z,94175.75
2023-04-24T13:26:24.228Z,94163.88
2023-04-24T13:28:53.374Z,94173.81
2023-04-24T13:31:22.617Z,94162.06
2023-04-24T13:33:51.928Z,94163.34
2023-04-24T13:36:21.182Z,94159.75
2023-04-24T13:38:50.449Z,94148.66
2023-04-24T13:41:21.091Z,94144.91
2023-04-24T13:43:50.309Z,94145.22
2023-04-24T13:46:19.794Z,94138.94
2023-04-24T13:48:49.147Z,94140.75
2023-04-24T13:51:18.302Z,94133.56
2023-04-24T13:53:47.422Z,94129.38
2023-04-24T13:56:17.157Z,94125.00
2023-04-24T13:58:47.920Z,94124.25
2023-04-24T14:01:17.570Z,94112.38
2023-04-24T14:03:47.474Z,94112.84
2023-04-24T14:06:17.043Z,94123.03
2023-04-24T14:08:46.174Z,94114.34
2023-04-24T14:11:16.275Z,94109.38
2023-04-24T14:13:47.917Z,94107.25
2023-04-24T14:16:17.400Z,94116.53
2023-04-24T14:18:46.707Z,94113.91
2023-04-24T14:21:16.118Z,94115.09
2023-04-24T14:23:45.499Z,94114.03
2023-04-24T14:26:15.097Z,94110.06
2023-04-24T14:28:44.232Z,94110.28
2023-04-24T14:31:15.033Z,94104.69
2023-04-24T14:33:45.208Z,94121.19
2023-04-24T14:36:15.040Z,94120.09
2023-04-24T14:38:44.476Z,94126.00
2023-04-24T14:41:16.496Z,94117.19
2023-04-24T14:43:45.953Z,94128.06
2023-04-24T14:46:16.840Z,94156.34
2023-04-24T14:48:46.324Z,94167.69
2023-04-24T14:51:15.576Z,94183.72
2023-04-24T14:53:48.908Z,94090.72
2023-04-24T14:56:18.208Z,94084.28
2023-04-24T14:58:47.908Z,94091.00
2023-04-24T15:01:19.244Z,94075.84
2023-04-24T15:03:48.569Z,94080.72
2023-04-24T15:06:18.120Z,94085.25
2023-04-24T15:08:49.995Z,94087.91
2023-04-24T15:11:20.089Z,94096.63
2023-04-24T15:13:49.596Z,94112.91
2023-04-24T15:16:20.224Z,94141.09
2023-04-24T15:18:49.430Z,94157.50
2023-04-24T15:21:18.663Z,94158.69
2023-04-24T15:23:48.261Z,94171.88
2023-04-24T15:26:17.877Z,94177.09
2023-04-24T15:28:47.937Z,94189.66
2023-04-24T15:31:17.159Z,94189.44
2023-04-24T15:33:47.965Z,94195.34
2023-04-24T15:36:17.745Z,94206.84
2023-04-24T15:38:47.363Z,94210.06
2023-04-24T15:41:19.632Z,94214.19
2023-04-24T15:43:51.033Z,94200.78
2023-04-24T15:46:20.383Z,94191.25
2023-04-24T15:48:51.045Z,94182.09
2023-04-24T15:51:20.325Z,94178.69
2023-04-24T15:53:50.096Z,94166.84
2023-04-24T15:56:19.372Z,94169.72
2023-04-24T15:58:48.935Z,94181.47
2023-04-24T16:01:18.407Z,94181.81
2023-04-24T16:03:48.050Z,94169.41
2023-04-24T16:06:18.897Z,94172.16
2023-04-24T16:08:48.231Z,94176.19
2023-04-24T16:11:17.796Z,94173.25
2023-04-24T16:13:46.906Z,94173.47
2023-04-24T16:16:16.702Z,94176.19
2023-04-24T16:19:01.609Z,94178.31
2023-04-24T16:21:57.852Z,94200.03
2023-04-24T16:24:43.555Z,94196.41
2023-04-24T16:27:22.938Z,94197.78
2023-04-24T16:29:54.873Z,94191.88
2023-04-24T16:32:26.968Z,94185.09
2023-04-24T16:35:16.368Z,94189.06
2023-04-24T16:37:51.387Z,94200.34
2023-04-24T16:40:33.404Z,94191.63
2023-04-24T16:43:05.827Z,94202.47
2023-04-24T16:45:38.729Z,94199.34
2023-04-24T16:48:13.061Z,94185.19
2023-04-24T16:50:47.019Z,94188.53
2023-04-24T16:53:30.637Z,94191.16
2023-04-24T16:56:14.272Z,94196.41
2023-04-24T16:58:52.924Z,94200.19
2023-04-24T17:01:41.476Z,94193.78
2023-04-24T17:04:18.779Z,94190.97
2023-04-24T17:06:58.316Z,94195.47
2023-04-24T17:09:43.523Z,94205.56
2023-04-24T17:12:32.012Z,94219.41
2023-04-24T17:15:12.992Z,94234.56
2023-04-24T17:17:51.786Z,94243.66
2023-04-24T17:20:25.846Z,94255.63
2023-04-24T17:23:02.312Z,94253.75
2023-04-24T17:25:36.848Z,94262.03
2023-04-24T17:28:35.395Z,94268.19
2023-04-24T17:31:22.504Z,94273.22
2023-04-24T17:33:55.674Z,94267.59
2023-04-24T17:36:40.174Z,94262.06
2023-04-24T17:39:27.173Z,94260.75
2023-04-24T17:42:27.517Z,94244.09
2023-04-24T17:45:04.115Z,94232.44
2023-04-24T17:47:47.766Z,94229.69
2023-04-24T17:50:29.271Z,94233.66
2023-04-24T17:53:26.404Z,94239.56
2023-04-24T17:56:32.746Z,94231.56
2023-04-24T17:59:20.106Z,94230.53
2023-04-24T18:01:54.778Z,94205.06
2023-04-24T18:04:29.797Z,94157.47
2023-04-24T18:07:17.229Z,94134.31
2023-04-24T18:10:01.155Z,94149.75
2023-04-24T18:12:42.882Z,94189.34
2023-04-24T18:15:46.060Z,94202.91
2023-04-24T18:18:25.926Z,94228.94
2023-04-24T18:21:00.574Z,94240.91
2023-04-24T18:23:48.056Z,94248.06
2023-04-24T18:26:32.340Z,94245.13
2023-04-24T18:29:07.345Z,94259.72
2023-04-24T18:32:23.434Z,94263.41
2023-04-24T18:35:04.092Z,94286.88
2023-04-24T18:41:51.717Z,94294.09
2023-04-24T18:44:31.261Z,94290.59
2023-04-24T18:47:13.538Z,94293.00
2023-04-24T18:53:41.473Z,94309.19
2023-04-24T18:56:23.220Z,94310.84
2023-04-24T18:59:06.042Z,94309.75
2023-04-24T19:01:49.723Z,94316.44
2023-04-24T19:04:54.253Z,94307.69
2023-04-24T19:07:43.658Z,94303.19
2023-04-24T19:10:38.820Z,94299.75
2023-04-24T19:13:14.745Z,94296.03
2023-04-24T19:15:51.415Z,94290.97
2023-04-24T19:18:27.405Z,94298.94
2023-04-24T19:21:05.763Z,94291.22
2023-04-24T19:24:00.313Z,94296.81
2023-04-24T19:26:47.488Z,94286.44
2023-04-24T19:29:27.483Z,94286.47
2023-04-24T19:32:05.314Z,94282.72
2023-04-24T19:34:57.300Z,94279.03
2023-04-24T19:37:38.263Z,94276.34
2023-04-24T19:40:17.760Z,94281.94
2023-04-24T19:43:23.536Z,94280.59
2023-04-24T19:46:07.382Z,94265.19
2023-04-24T19:48:44.529Z,94255.88
2023-04-24T19:51:27.825Z,94254.28
2023-04-24T19:54:08.046Z,94250.03
2023-04-24T19:56:44.617Z,94236.50
2023-04-24T19:59:27.771Z,94227.72
2023-04-24T20:02:07.918Z,94225.84
2023-04-24T20:04:50.835Z,94220.53
2023-04-24T20:07:30.578Z,94209.38
2023-04-24T20:10:17.516Z,94218.66
2023-04-24T20:12:56.123Z,94215.50
2023-04-24T20:15:40.376Z,94205.13
2023-04-24T20:18:24.880Z,94201.94
2023-04-24T20:21:00.098Z,94217.88
2023-04-24T20:23:30.208Z,94232.75
2023-04-24T20:26:10.094Z,94242.88
2023-04-24T20:28:41.177Z,94251.34
2023-04-24T20:31:14.795Z,94248.16
2023-04-24T20:33:52.000Z,94245.50
2023-04-24T20:36:28.289Z,94248.72
2023-04-24T20:39:04.860Z,94250.84
2023-04-24T20:41:46.010Z,94248.97
2023-04-24T20:44:24.535Z,94254.31
2023-04-24T20:46:59.841Z,94248.16
2023-04-24T20:49:34.872Z,94244.19
2023-04-24T20:52:05.551Z,94229.06
2023-04-24T20:54:41.363Z,94229.81
2023-04-24T20:57:17.850Z,94222.38
2023-04-24T20:59:51.978Z,94215.25
2023-04-24T21:02:39.210Z,94215.47
2023-04-24T21:05:15.372Z,94199.56
2023-04-24T21:07:51.140Z,94183.09
2023-04-24T21:10:28.492Z,94172.22
2023-04-24T21:13:05.242Z,94172.19
2023-04-24T21:15:44.015Z,94166.09
2023-04-24T21:18:15.049Z,94153.34
2023-04-24T21:20:44.481Z,94156.00
2023-04-24T21:23:13.854Z,94166.66
2023-04-24T21:25:43.093Z,94187.88
2023-04-24T21:28:13.800Z,94189.75
2023-04-24T21:30:43.086Z,94191.88
2023-04-24T21:33:13.108Z,94181.25
2023-04-24T21:35:42.400Z,94187.59
2023-04-24T21:38:11.483Z,94188.69
2023-04-24T21:40:40.811Z,94196.09
2023-04-24T21:43:10.114Z,94191.88
2023-04-24T21:45:40.692Z,94188.16
2023-04-24T21:48:09.960Z,94207.25
2023-04-24T21:50:39.158Z,94206.22
2023-04-24T21:53:08.381Z,94206.47
2023-04-24T21:55:37.438Z,94205.16
2023-04-24T21:58:06.675Z,94200.63
2023-04-24T22:00:36.163Z,94200.88
2023-04-24T22:03:07.099Z,94204.88
2023-04-24T22:05:36.215Z,94205.41
2023-04-24T22:08:05.786Z,94211.25
2023-04-24T22:10:35.000Z,94224.81
2023-04-24T22:13:05.038Z,94232.78
2023-04-24T22:15:34.261Z,94241.28
2023-04-24T22:18:04.431Z,94228.50
2023-04-24T22:20:35.579Z,94226.38
2023-04-24T22:23:04.852Z,94197.44
2023-04-24T22:25:34.294Z,94211.53
2023-04-24T22:28:04.171Z,94207.25
2023-04-24T22:30:33.342Z,94200.06
2023-04-24T22:33:02.419Z,94205.13
2023-04-24T22:35:31.535Z,94212.56
2023-04-24T22:38:02.365Z,94209.13
2023-04-24T22:40:31.718Z,94196.38
2023-04-24T22:43:00.960Z,94199.81
2023-04-24T22:45:33.560Z,94185.22
2023-04-24T22:48:02.777Z,94176.72
2023-04-24T22:50:32.609Z,94146.97
2023-04-24T22:53:03.661Z,94150.19
2023-04-24T22:55:32.759Z,94147.25
2023-04-24T22:58:03.096Z,94137.72
2023-04-24T23:00:32.251Z,94138.25
2023-04-24T23:03:01.738Z,94140.63
2023-04-24T23:05:31.763Z,94138.22
2023-04-24T23:08:00.900Z,94143.03
2023-04-24T23:10:32.045Z,94133.69
2023-04-24T23:13:04.112Z,94128.94
2023-04-24T23:15:33.301Z,94131.31
2023-04-24T23:18:02.621Z,94135.03
2023-04-24T23:20:31.778Z,94125.50
2023-04-24T23:23:02.152Z,94122.28
2023-04-24T23:25:33.103Z,94124.94
2023-04-24T23:28:02.333Z,94133.97
2023-04-24T23:30:31.441Z,94131.84
2023-04-24T23:33:00.623Z,94136.91
2023-04-24T23:35:29.878Z,94129.72
2023-04-24T23:37:59.051Z,94132.09
2023-04-24T23:40:28.287Z,94135.56
2023-04-24T23:43:06.695Z,94136.63
2023-04-24T23:45:37.285Z,94129.97
2023-04-24T23:48:06.684Z,94131.88
2023-04-24T23:50:35.997Z,94138.22
2023-04-24T23:53:08.328Z,94123.88
2023-04-24T23:55:38.802Z,94115.13
2023-04-24T23:58:09.271Z,94109.53
